createdAt,value
2018-08-09T00:00:49.361Z,5.87
2018-08-09T00:03:17.602Z,5.90
2018-08-09T00:05:45.819Z,6.53
2018-08-09T00:08:13.966Z,6.70
2018-08-09T00:10:42.114Z,6.00
2018-08-09T00:13:10.659Z,6.77
2018-08-09T00:15:38.869Z,6.13
2018-08-09T00:18:07.235Z,6.37
2018-08-09T00:20:35.424Z,6.50
2018-08-09T00:23:03.563Z,6.53
2018-08-09T00:25:31.679Z,6.20
2018-08-09T00:27:59.843Z,5.90
2018-08-09T00:30:28.005Z,6.10
2018-08-09T00:32:56.333Z,6.30
2018-08-09T00:35:24.529Z,5.90
2018-08-09T00:37:52.715Z,6.40
2018-08-09T00:40:20.819Z,7.73
2018-08-09T00:42:48.962Z,6.30
2018-08-09T00:45:17.208Z,7.50
2018-08-09T00:47:45.951Z,6.03
2018-08-09T00:50:14.097Z,7.63
2018-08-09T00:52:42.235Z,7.07
2018-08-09T00:55:10.583Z,7.17
2018-08-09T00:57:38.709Z,6.17
2018-08-09T01:00:06.908Z,6.67
2018-08-09T01:02:35.181Z,6.03
2018-08-09T01:05:03.457Z,6.97
2018-08-09T01:07:31.603Z,6.30
2018-08-09T01:09:59.929Z,6.93
2018-08-09T01:12:28.299Z,6.20
2018-08-09T01:14:56.453Z,6.83
2018-08-09T01:17:24.567Z,6.73
2018-08-09T01:19:52.741Z,6.30
2018-08-09T01:22:21.391Z,6.20
2018-08-09T01:24:49.530Z,7.10
2018-08-09T01:27:17.745Z,6.67
2018-08-09T01:29:45.887Z,8.07
2018-08-09T01:32:14.060Z,7.20
2018-08-09T01:34:42.231Z,7.30
2018-08-09T01:37:10.393Z,7.57
2018-08-09T01:39:38.568Z,7.33
2018-08-09T01:42:18.393Z,7.23
2018-08-09T01:44:46.581Z,7.13
2018-08-09T01:47:14.789Z,7.63
2018-08-09T01:49:43.083Z,7.30
2018-08-09T01:52:11.347Z,7.67
2018-08-09T01:54:39.513Z,7.37
2018-08-09T01:57:07.711Z,7.87
2018-08-09T01:59:36.897Z,8.20
2018-08-09T02:02:05.126Z,7.97
2018-08-09T02:04:33.255Z,8.07
2018-08-09T02:07:01.439Z,7.83
2018-08-09T02:09:32.395Z,8.27
2018-08-09T02:12:01.111Z,8.50
2018-08-09T02:14:29.266Z,8.73
2018-08-09T02:16:57.437Z,8.93
2018-08-09T02:19:25.562Z,7.90
2018-08-09T02:21:53.712Z,8.60
2018-08-09T02:24:21.864Z,10.43
2018-08-09T02:26:50.009Z,7.93
2018-08-09T02:29:18.130Z,8.90
2018-08-09T02:31:46.319Z,9.10
2018-08-09T02:34:14.523Z,9.50
2018-08-09T02:36:42.739Z,9.63
2018-08-09T02:39:11.343Z,8.83
2018-08-09T02:41:39.621Z,10.27
2018-08-09T02:44:07.969Z,9.53
2018-08-09T02:46:36.392Z,9.90
2018-08-09T02:49:04.535Z,9.20
2018-08-09T02:51:32.701Z,8.60
2018-08-09T02:54:00.839Z,9.60
2018-08-09T02:56:29.107Z,9.70
2018-08-09T02:58:57.679Z,9.83
2018-08-09T03:01:25.829Z,10.20
2018-08-09T03:03:53.937Z,9.93
2018-08-09T03:06:22.123Z,9.10
2018-08-09T03:08:50.485Z,10.23
2018-08-09T03:11:18.621Z,9.80
2018-08-09T03:13:47.081Z,9.50
2018-08-09T03:16:15.256Z,10.90
2018-08-09T03:18:43.387Z,10.97
2018-08-09T03:21:11.664Z,9.90
2018-08-09T03:23:39.845Z,10.60
2018-08-09T03:26:08.035Z,10.73
2018-08-09T03:28:36.260Z,11.13
2018-08-09T03:31:04.461Z,9.80
2018-08-09T03:33:32.603Z,10.97
2018-08-09T03:36:00.726Z,10.97
2018-08-09T03:38:28.948Z,10.90
2018-08-09T03:40:57.203Z,10.10
2018-08-09T03:43:25.409Z,11.57
2018-08-09T03:45:53.664Z,10.67
2018-08-09T03:48:21.902Z,10.70
2018-08-09T03:50:50.102Z,10.40
2018-08-09T03:53:18.317Z,11.37
2018-08-09T03:55:46.535Z,10.63
2018-08-09T03:58:14.893Z,11.07
2018-08-09T04:00:43.270Z,10.40
2018-08-09T04:03:11.418Z,11.30
2018-08-09T04:05:39.565Z,10.63
2018-08-09T04:08:08.786Z,10.83
2018-08-09T04:10:36.936Z,10.80
2018-08-09T04:13:05.183Z,11.13
2018-08-09T04:15:33.344Z,11.30
2018-08-09T04:18:01.727Z,9.83
2018-08-09T04:20:30.168Z,11.10
2018-08-09T04:22:58.318Z,10.13
2018-08-09T04:25:26.636Z,10.73
2018-08-09T04:27:54.883Z,9.43
2018-08-09T04:30:23.087Z,9.70
2018-08-09T04:32:51.314Z,10.63
2018-08-09T04:35:19.553Z,10.10
2018-08-09T04:37:47.945Z,9.63
2018-08-09T04:40:16.108Z,10.37
2018-08-09T04:42:44.286Z,11.57
2018-08-09T04:45:12.560Z,10.53
2018-08-09T04:47:40.868Z,9.70
2018-08-09T04:50:09.296Z,10.90
2018-08-09T04:52:37.420Z,9.23
2018-08-09T04:55:05.584Z,9.10
2018-08-09T04:57:33.876Z,10.10
2018-08-09T05:00:02.011Z,9.97
2018-08-09T05:02:30.228Z,10.10
2018-08-09T05:04:58.538Z,9.57
2018-08-09T05:07:26.746Z,8.70
2018-08-09T05:09:54.885Z,8.80
2018-08-09T05:12:23.184Z,7.50
2018-08-09T05:14:51.342Z,7.63
2018-08-09T05:17:19.543Z,7.80
2018-08-09T05:19:47.705Z,7.43
2018-08-09T05:22:15.887Z,7.73
2018-08-09T05:24:44.025Z,7.20
2018-08-09T05:27:12.137Z,7.30
2018-08-09T05:29:40.278Z,7.37
2018-08-09T05:32:08.541Z,6.90
2018-08-09T05:34:36.744Z,6.73
2018-08-09T05:37:04.904Z,5.90
2018-08-09T05:39:33.152Z,6.83
2018-08-09T05:42:01.301Z,6.90
2018-08-09T05:44:29.454Z,6.23
2018-08-09T05:46:57.688Z,6.07
2018-08-09T05:49:26.096Z,6.73
2018-08-09T05:51:54.246Z,6.97
2018-08-09T05:54:22.447Z,7.10
2018-08-09T05:56:50.700Z,5.97
2018-08-09T05:59:18.857Z,6.10
2018-08-09T06:01:47.185Z,5.90
2018-08-09T06:04:15.346Z,6.43
2018-08-09T06:06:44.116Z,5.93
2018-08-09T06:09:13.178Z,5.00
2018-08-09T06:11:41.328Z,5.03
2018-08-09T06:14:10.276Z,5.57
2018-08-09T06:16:38.450Z,5.43
2018-08-09T06:19:07.137Z,4.83
2018-08-09T06:21:35.350Z,5.00
2018-08-09T06:24:03.529Z,5.27
2018-08-09T06:26:31.757Z,5.10
2018-08-09T06:28:59.944Z,4.90
2018-08-09T06:31:28.342Z,4.83
2018-08-09T06:33:56.556Z,5.53
2018-08-09T06:36:25.187Z,4.60
2018-08-09T06:38:53.388Z,5.00
2018-08-09T06:41:21.532Z,5.77
2018-08-09T06:43:49.812Z,5.40
2018-08-09T06:46:17.965Z,4.93
2018-08-09T06:48:46.767Z,4.73
2018-08-09T06:51:14.926Z,4.90
2018-08-09T06:53:43.182Z,5.23
2018-08-09T06:56:11.417Z,5.30
2018-08-09T06:58:39.633Z,6.30
2018-08-09T07:01:07.845Z,5.70
2018-08-09T07:03:36.150Z,5.20
2018-08-09T07:06:04.499Z,5.30
2018-08-09T07:08:32.635Z,5.30
2018-08-09T07:11:00.931Z,4.70
2018-08-09T07:13:29.189Z,4.87
2018-08-09T07:15:58.512Z,5.40
2018-08-09T07:18:26.707Z,5.37
2018-08-09T07:20:55.203Z,5.23
2018-08-09T07:23:23.378Z,5.60
2018-08-09T07:25:51.560Z,5.27
2018-08-09T07:28:19.828Z,5.70
2018-08-09T07:30:48.076Z,5.30
2018-08-09T07:33:16.207Z,5.23
2018-08-09T07:35:44.567Z,5.40
2018-08-09T07:38:12.742Z,5.20
2018-08-09T07:40:40.947Z,5.07
2018-08-09T07:43:10.187Z,6.50
2018-08-09T07:45:38.475Z,5.43
2018-08-09T07:48:06.676Z,5.97
2018-08-09T07:50:34.905Z,6.40
2018-08-09T07:53:03.182Z,6.03
2018-08-09T07:55:31.423Z,5.80
2018-08-09T07:57:59.688Z,5.93
2018-08-09T08:00:27.966Z,5.70
2018-08-09T08:02:56.106Z,6.17
2018-08-09T08:05:24.414Z,5.60
2018-08-09T08:07:52.637Z,5.97
2018-08-09T08:10:20.974Z,6.23
2018-08-09T08:12:49.159Z,5.60
2018-08-09T08:15:17.353Z,6.50
2018-08-09T08:17:45.551Z,6.40
2018-08-09T08:20:14.005Z,6.60
2018-08-09T08:22:42.346Z,7.33
2018-08-09T08:25:10.547Z,6.30
2018-08-09T08:27:38.680Z,6.83
2018-08-09T08:30:09.862Z,7.00
2018-08-09T08:32:38.458Z,6.40
2018-08-09T08:35:06.740Z,6.73
2018-08-09T08:37:35.144Z,6.23
2018-08-09T08:40:03.332Z,7.60
2018-08-09T08:42:31.449Z,6.80
2018-08-09T08:44:59.634Z,6.13
2018-08-09T08:47:27.842Z,6.40
2018-08-09T08:49:55.984Z,7.17
2018-08-09T08:52:24.203Z,6.13
2018-08-09T08:54:52.388Z,7.00
2018-08-09T08:57:20.568Z,6.70
2018-08-09T08:59:48.770Z,6.80
2018-08-09T09:02:17.052Z,6.63
2018-08-09T09:04:45.294Z,5.77
2018-08-09T09:07:13.506Z,6.63
2018-08-09T09:09:41.757Z,5.93
2018-08-09T09:12:10.015Z,6.90
2018-08-09T09:14:38.196Z,6.57
2018-08-09T09:17:06.390Z,7.00
2018-08-09T09:19:34.698Z,7.00
2018-08-09T09:22:03.274Z,6.33
2018-08-09T09:24:32.195Z,6.77
2018-08-09T09:27:00.373Z,6.80
2018-08-09T09:29:35.166Z,6.40
2018-08-09T09:32:03.425Z,6.70
2018-08-09T09:34:31.822Z,6.53
2018-08-09T09:37:00.060Z,6.90
2018-08-09T09:39:28.286Z,6.90
2018-08-09T09:41:56.506Z,7.37
2018-08-09T09:44:24.802Z,7.60
2018-08-09T09:46:53.030Z,7.30
2018-08-09T09:49:21.341Z,7.70
2018-08-09T09:51:49.644Z,7.23
2018-08-09T09:54:18.027Z,6.70
2018-08-09T09:56:46.464Z,6.80
2018-08-09T09:59:14.616Z,7.33
2018-08-09T10:01:42.795Z,7.00
2018-08-09T10:04:10.988Z,6.63
2018-08-09T10:06:39.211Z,7.57
2018-08-09T10:09:09.910Z,6.57
2018-08-09T10:11:38.270Z,9.07
2018-08-09T10:14:06.570Z,7.53
2018-08-09T10:16:35.030Z,7.33
2018-08-09T10:19:03.257Z,6.70
2018-08-09T10:21:31.624Z,8.40
2018-08-09T10:23:59.749Z,7.03
2018-08-09T10:26:27.984Z,7.43
2018-08-09T10:28:56.098Z,7.60
2018-08-09T10:31:24.415Z,7.27
2018-08-09T10:33:52.569Z,8.03
2018-08-09T10:36:20.739Z,7.53
2018-08-09T10:38:48.890Z,7.30
2018-08-09T10:41:17.034Z,7.57
2018-08-09T10:43:45.261Z,7.90
2018-08-09T10:46:13.748Z,7.60
2018-08-09T10:48:42.068Z,8.43
2018-08-09T10:51:10.211Z,7.00
2018-08-09T10:53:38.332Z,7.10
2018-08-09T10:56:06.522Z,7.20
2018-08-09T10:58:34.744Z,7.33
2018-08-09T11:01:03.110Z,7.97
2018-08-09T11:03:32.012Z,8.20
2018-08-09T11:06:00.180Z,6.80
2018-08-09T11:08:28.360Z,6.67
2018-08-09T11:10:56.673Z,7.90
2018-08-09T11:13:24.782Z,6.97
2018-08-09T11:15:53.084Z,7.60
2018-08-09T11:18:21.253Z,6.80
2018-08-09T11:20:49.548Z,7.43
2018-08-09T11:23:17.934Z,7.30
2018-08-09T11:25:46.109Z,6.90
2018-08-09T11:28:14.254Z,7.50
2018-08-09T11:30:42.488Z,6.90
2018-08-09T11:33:10.730Z,7.10
2018-08-09T11:35:39.146Z,7.40
2018-08-09T11:38:07.288Z,7.33
2018-08-09T11:40:35.465Z,6.70
2018-08-09T11:43:03.686Z,7.30
2018-08-09T11:45:31.792Z,7.97
2018-08-09T11:48:00.195Z,6.40
2018-08-09T11:50:28.364Z,7.97
2018-08-09T11:52:56.519Z,8.27
2018-08-09T11:55:24.662Z,7.73
2018-08-09T11:57:53.178Z,7.73
2018-08-09T12:00:21.371Z,7.30
2018-08-09T12:02:49.534Z,8.60
2018-08-09T12:05:17.804Z,7.40
2018-08-09T12:07:46.040Z,7.83
2018-08-09T12:10:14.380Z,7.60
2018-08-09T12:12:42.520Z,8.20
2018-08-09T12:15:10.839Z,7.97
2018-08-09T12:17:38.982Z,7.90
2018-08-09T12:20:07.436Z,7.70
2018-08-09T12:22:35.610Z,7.70
2018-08-09T12:25:04.011Z,8.57
2018-08-09T12:27:32.240Z,8.33
2018-08-09T12:30:00.659Z,7.70
2018-08-09T12:32:28.795Z,7.80
2018-08-09T12:34:56.953Z,8.30
2018-08-09T12:37:25.164Z,8.47
2018-08-09T12:39:53.512Z,7.10
2018-08-09T12:42:21.829Z,8.10
2018-08-09T12:44:49.955Z,9.33
2018-08-09T12:47:18.094Z,6.83
2018-08-09T12:49:46.345Z,7.60
2018-08-09T12:52:14.648Z,7.50
2018-08-09T12:54:42.885Z,7.17
2018-08-09T12:57:11.101Z,7.10
2018-08-09T12:59:39.401Z,7.33
2018-08-09T13:02:07.641Z,6.83
2018-08-09T13:04:35.835Z,6.10
2018-08-09T13:07:04.137Z,6.47
2018-08-09T13:09:32.307Z,6.23
2018-08-09T13:12:00.482Z,8.07
2018-08-09T13:14:29.299Z,5.80
2018-08-09T13:16:57.483Z,6.80
2018-08-09T13:19:25.723Z,6.23
2018-08-09T13:21:53.873Z,5.80
2018-08-09T13:24:22.626Z,6.03
2018-08-09T13:26:50.789Z,5.53
2018-08-09T13:29:18.943Z,5.60
2018-08-09T13:31:47.167Z,5.60
2018-08-09T13:34:15.346Z,5.63
2018-08-09T13:36:43.516Z,5.30
2018-08-09T13:39:13.471Z,5.43
2018-08-09T13:41:42.579Z,5.50
2018-08-09T13:44:11.060Z,5.60
2018-08-09T13:46:39.185Z,5.47
2018-08-09T13:49:07.311Z,4.97
2018-08-09T13:51:35.503Z,5.80
2018-08-09T13:54:03.689Z,5.30
2018-08-09T13:56:32.005Z,6.00
2018-08-09T13:59:00.194Z,5.30
2018-08-09T14:01:28.370Z,5.00
2018-08-09T14:03:56.656Z,5.47
2018-08-09T14:06:24.811Z,5.80
2018-08-09T14:08:52.943Z,5.30
2018-08-09T14:11:21.056Z,6.30
2018-08-09T14:13:49.307Z,5.60
2018-08-09T14:16:17.660Z,5.67
2018-08-09T14:18:45.855Z,4.63
2018-08-09T14:21:14.059Z,5.50
2018-08-09T14:23:42.242Z,5.40
2018-08-09T14:26:10.433Z,5.33
2018-08-09T14:28:38.643Z,5.83
2018-08-09T14:31:06.797Z,5.20
2018-08-09T14:33:34.929Z,6.93
2018-08-09T14:36:03.142Z,5.77
2018-08-09T14:38:31.304Z,6.70
2018-08-09T14:40:59.488Z,5.30
2018-08-09T14:43:27.691Z,5.73
2018-08-09T14:45:55.928Z,6.67
2018-08-09T14:48:24.870Z,5.73
2018-08-09T14:50:54.259Z,5.57
2018-08-09T14:53:22.475Z,4.97
2018-08-09T14:55:51.704Z,5.70
2018-08-09T14:58:20.062Z,5.70
2018-08-09T15:00:48.331Z,5.27
2018-08-09T15:03:17.348Z,5.60
2018-08-09T15:05:45.873Z,5.60
2018-08-09T15:08:14.379Z,5.87
2018-08-09T15:10:42.746Z,5.33
2018-08-09T15:13:10.932Z,5.87
2018-08-09T15:15:39.212Z,5.80
2018-08-09T15:18:07.410Z,6.07
2018-08-09T15:20:35.546Z,5.70
2018-08-09T15:23:03.686Z,5.70
2018-08-09T15:25:31.870Z,6.03
2018-08-09T15:27:59.998Z,5.10
2018-08-09T15:30:28.132Z,5.70
2018-08-09T15:32:56.328Z,5.60
2018-08-09T15:35:24.510Z,5.63
2018-08-09T15:37:52.676Z,5.77
2018-08-09T15:40:20.828Z,5.57
2018-08-09T15:42:48.942Z,7.03
2018-08-09T15:45:17.181Z,6.70
2018-08-09T15:47:45.572Z,6.40
2018-08-09T15:50:16.106Z,6.03
2018-08-09T15:52:44.411Z,6.10
2018-08-09T15:55:13.725Z,5.20
2018-08-09T15:57:41.842Z,5.80
2018-08-09T16:00:20.515Z,5.60
2018-08-09T16:02:48.622Z,5.80
2018-08-09T16:05:17.519Z,6.60
2018-08-09T16:07:46.042Z,6.20
2018-08-09T16:10:15.307Z,6.37
2018-08-09T16:12:43.628Z,5.30
2018-08-09T16:15:14.002Z,5.73
2018-08-09T16:17:42.582Z,5.83
2018-08-09T16:20:11.500Z,6.37
2018-08-09T16:22:39.722Z,6.03
2018-08-09T16:25:10.828Z,5.87
2018-08-09T16:27:39.152Z,6.67
2018-08-09T16:30:17.850Z,6.20
2018-08-09T16:32:46.062Z,6.47
2018-08-09T16:35:14.458Z,5.93
2018-08-09T16:37:43.710Z,6.00
2018-08-09T16:40:15.573Z,5.30
2018-08-09T16:42:44.247Z,5.63
2018-08-09T16:45:14.022Z,5.70
2018-08-09T16:47:42.372Z,5.70
2018-08-09T16:50:12.621Z,5.53
2018-08-09T16:52:40.794Z,6.47
2018-08-09T16:55:10.685Z,6.67
2018-08-09T16:57:39.016Z,5.47
2018-08-09T17:00:09.935Z,6.03
2018-08-09T17:02:38.753Z,5.53
2018-08-09T17:05:10.219Z,7.70
2018-08-09T17:07:38.560Z,5.93
2018-08-09T17:10:08.413Z,7.77
2018-08-09T17:12:36.570Z,5.90
2018-08-09T17:15:07.569Z,5.87
2018-08-09T17:17:35.767Z,6.00
2018-08-09T17:20:07.525Z,5.33
2018-08-09T17:22:35.750Z,5.40
2018-08-09T17:25:04.095Z,7.23
2018-08-09T17:27:32.241Z,6.07
2018-08-09T17:30:00.420Z,5.90
2018-08-09T17:32:28.835Z,6.73
2018-08-09T17:34:56.995Z,6.27
2018-08-09T17:37:25.533Z,6.80
2018-08-09T17:39:53.626Z,6.17
2018-08-09T17:42:21.934Z,5.60
2018-08-09T17:44:50.542Z,6.57
2018-08-09T17:47:19.435Z,7.47
2018-08-09T17:49:47.577Z,6.80
2018-08-09T17:52:15.744Z,7.00
2018-08-09T17:54:44.056Z,6.93
2018-08-09T17:57:12.207Z,7.30
2018-08-09T17:59:40.346Z,6.30
2018-08-09T18:02:08.514Z,6.13
2018-08-09T18:04:36.699Z,6.40
2018-08-09T18:07:04.821Z,6.70
2018-08-09T18:09:33.484Z,7.17
2018-08-09T18:12:02.507Z,6.33
2018-08-09T18:14:30.655Z,6.90
2018-08-09T18:16:58.825Z,6.63
2018-08-09T18:19:26.987Z,6.37
2018-08-09T18:21:55.242Z,7.30
2018-08-09T18:24:23.413Z,7.33
2018-08-09T18:26:51.685Z,6.53
2018-08-09T18:29:19.940Z,6.73
2018-08-09T18:31:48.070Z,7.27
2018-08-09T18:34:16.274Z,7.30
2018-08-09T18:36:44.398Z,6.27
2018-08-09T18:39:12.664Z,7.17
2018-08-09T18:41:40.795Z,7.10
2018-08-09T18:44:09.156Z,7.23
2018-08-09T18:46:37.344Z,7.07
2018-08-09T18:49:05.523Z,7.77
2018-08-09T18:51:33.773Z,7.30
2018-08-09T18:54:02.004Z,6.40
2018-08-09T18:56:30.851Z,8.00
2018-08-09T18:58:59.290Z,6.90
2018-08-09T19:01:27.540Z,7.30
2018-08-09T19:03:55.788Z,9.37
2018-08-09T19:06:24.029Z,7.10
2018-08-09T19:08:52.245Z,7.80
2018-08-09T19:11:20.921Z,7.57
2018-08-09T19:13:49.171Z,7.80
2018-08-09T19:16:17.329Z,6.80
2018-08-09T19:18:45.505Z,7.07
2018-08-09T19:21:13.698Z,7.63
2018-08-09T19:23:41.941Z,7.30
2018-08-09T19:26:10.209Z,7.23
2018-08-09T19:28:38.453Z,8.70
2018-08-09T19:31:06.706Z,7.70
2018-08-09T19:33:34.951Z,7.00
2018-08-09T19:36:03.141Z,7.30
2018-08-09T19:38:31.449Z,6.90
2018-08-09T19:40:59.625Z,7.50
2018-08-09T19:43:27.905Z,7.00
2018-08-09T19:45:56.083Z,7.17
2018-08-09T19:48:24.406Z,8.20
2018-08-09T19:50:52.640Z,7.67
2018-08-09T19:53:20.964Z,6.77
2018-08-09T19:55:49.149Z,7.93
2018-08-09T19:58:17.349Z,7.40
2018-08-09T20:00:46.899Z,5.23
2018-08-09T20:03:15.088Z,5.87
2018-08-09T20:05:43.236Z,4.70
2018-08-09T20:08:11.402Z,5.23
2018-08-09T20:10:39.533Z,5.00
2018-08-09T20:13:07.837Z,3.77
2018-08-09T20:15:36.000Z,5.33
2018-08-09T20:18:04.311Z,4.93
2018-08-09T20:20:32.612Z,5.47
2018-08-09T20:23:01.001Z,5.03
2018-08-09T20:25:29.142Z,4.83
2018-08-09T20:27:58.785Z,5.90
2018-08-09T20:30:26.921Z,6.03
2018-08-09T20:32:55.099Z,5.30
2018-08-09T20:35:24.062Z,4.90
2018-08-09T20:37:52.535Z,5.57
2018-08-09T20:40:21.974Z,5.27
2018-08-09T20:42:51.115Z,5.83
2018-08-09T20:45:20.638Z,6.27
2018-08-09T20:47:48.807Z,6.53
2018-08-09T20:50:19.645Z,5.30
2018-08-09T20:52:48.739Z,6.77
2018-08-09T20:55:17.085Z,5.87
2018-08-09T20:57:46.013Z,8.50
2018-08-09T21:00:19.000Z,10.33
2018-08-09T21:02:48.513Z,7.67
2018-08-09T21:05:17.420Z,6.10
2018-08-09T21:07:45.579Z,6.57
2018-08-09T21:10:13.941Z,6.90
2018-08-09T21:12:42.117Z,7.60
2018-08-09T21:15:10.302Z,8.17
2018-08-09T21:17:38.611Z,8.63
2018-08-09T21:20:07.151Z,8.23
2018-08-09T21:22:35.279Z,10.77
2018-08-09T21:25:03.654Z,8.43
2018-08-09T21:27:31.796Z,8.47
2018-08-09T21:30:00.051Z,9.70
2018-08-09T21:32:28.973Z,8.80
2018-08-09T21:34:57.095Z,8.07
2018-08-09T21:37:25.323Z,8.03
2018-08-09T21:39:53.539Z,7.10
2018-08-09T21:42:21.641Z,7.10
2018-08-09T21:44:49.829Z,7.00
2018-08-09T21:47:17.980Z,7.63
2018-08-09T21:49:46.142Z,7.90
2018-08-09T21:52:14.303Z,7.60
2018-08-09T21:54:42.485Z,8.57
2018-08-09T21:57:10.589Z,8.20
2018-08-09T21:59:38.834Z,8.23
2018-08-09T22:02:07.067Z,8.13
2018-08-09T22:04:39.553Z,7.47
2018-08-09T22:07:13.057Z,7.93
2018-08-09T22:09:46.923Z,7.10
2018-08-09T22:12:20.747Z,7.50
2018-08-09T22:14:54.453Z,6.53
2018-08-09T22:17:27.921Z,7.40
2018-08-09T22:20:01.583Z,7.63
2018-08-09T22:22:29.730Z,7.23
2018-08-09T22:24:57.943Z,7.40
2018-08-09T22:27:26.083Z,6.97
2018-08-09T22:29:54.392Z,8.33
2018-08-09T22:32:22.501Z,7.80
2018-08-09T22:34:50.621Z,7.47
2018-08-09T22:37:18.850Z,7.10
2018-08-09T22:39:47.019Z,6.50
2018-08-09T22:42:15.318Z,6.30
2018-08-09T22:44:43.510Z,6.50
2018-08-09T22:47:11.807Z,7.57
2018-08-09T22:49:40.007Z,6.30
2018-08-09T22:52:08.285Z,6.10
2018-08-09T22:54:36.439Z,5.90
2018-08-09T22:57:04.695Z,7.03
2018-08-09T22:59:32.988Z,6.20
2018-08-09T23:02:01.200Z,6.97
2018-08-09T23:04:29.523Z,6.40
2018-08-09T23:06:57.808Z,6.50
2018-08-09T23:09:25.976Z,5.70
2018-08-09T23:11:54.182Z,6.67
2018-08-09T23:14:22.456Z,6.20
2018-08-09T23:16:50.598Z,6.70
2018-08-09T23:19:18.769Z,5.80
2018-08-09T23:21:47.039Z,5.67
2018-08-09T23:24:15.361Z,5.60
2018-08-09T23:26:43.504Z,6.90
2018-08-09T23:29:11.655Z,5.60
2018-08-09T23:31:39.814Z,6.57
2018-08-09T23:34:07.977Z,6.23
2018-08-09T23:36:36.117Z,5.63
2018-08-09T23:39:07.981Z,5.47
2018-08-09T23:41:36.191Z,5.43
2018-08-09T23:44:04.339Z,5.27
2018-08-09T23:46:32.604Z,6.40
2018-08-09T23:49:00.751Z,4.63
2018-08-09T23:51:29.774Z,5.63
2018-08-09T23:53:58.025Z,5.23
2018-08-09T23:56:27.758Z,5.63
2018-08-09T23:58:55.957Z,5.33
